createdAt,value
2019-04-06T00:00:52.326Z,94285.5
2019-04-06T00:01:54.770Z,94285.8
2019-04-06T00:02:57.209Z,94284.4
2019-04-06T00:03:59.389Z,94287.6
2019-04-06T00:05:01.848Z,94286.6
2019-04-06T00:06:04.270Z,94289.8
2019-04-06T00:07:06.408Z,94283.7
2019-04-06T00:08:08.569Z,94284.3
2019-04-06T00:09:10.994Z,94284.7
2019-04-06T00:10:13.151Z,94281.2
2019-04-06T00:11:15.591Z,94276.7
2019-04-06T00:12:18.031Z,94284.3
2019-04-06T00:13:20.188Z,94280
2019-04-06T00:14:22.068Z,94283
2019-04-06T00:15:24.502Z,94284.2
2019-04-06T00:16:26.923Z,94287.7
2019-04-06T00:17:29.119Z,94284.4
2019-04-06T00:18:30.999Z,94281.6
2019-04-06T00:19:33.427Z,94284.5
2019-04-06T00:20:35.857Z,94279.8
2019-04-06T00:21:38.321Z,94281.4
2019-04-06T00:22:40.749Z,94277.3
2019-04-06T00:23:43.180Z,94279.9
2019-04-06T00:24:45.637Z,94275.6
2019-04-06T00:25:47.795Z,94278.1
2019-04-06T00:26:50.238Z,94275
2019-04-06T00:27:52.792Z,94273.4
2019-04-06T00:28:55.212Z,94272.1
2019-04-06T00:29:57.371Z,94271.9
2019-04-06T00:30:59.809Z,94270.7
2019-04-06T00:32:02.256Z,94274.7
2019-04-06T00:33:04.689Z,94273.8
2019-04-06T00:34:06.845Z,94271.3
2019-04-06T00:35:09.298Z,94275.7
2019-04-06T00:36:11.725Z,94272.2
2019-04-06T00:37:13.888Z,94273.2
2019-04-06T00:38:16.077Z,94272.1
2019-04-06T00:39:18.239Z,94274.1
2019-04-06T00:40:20.110Z,94274.5
2019-04-06T00:41:22.569Z,94279.7
2019-04-06T00:42:25.009Z,94282.2
2019-04-06T00:43:27.460Z,94281.5
2019-04-06T00:44:29.644Z,94282.4
2019-04-06T00:45:32.128Z,94288.5
2019-04-06T00:46:33.742Z,94283.3
2019-04-06T00:47:36.176Z,94285.6
2019-04-06T00:48:38.614Z,94283.9
2019-04-06T00:49:41.054Z,94281.3
2019-04-06T00:50:42.927Z,94282.8
2019-04-06T00:51:45.360Z,94279.2
2019-04-06T00:52:47.822Z,94281.5
2019-04-06T00:53:50.241Z,94279.6
2019-04-06T00:54:52.688Z,94280.8
2019-04-06T00:57:00.122Z,94283.4
2019-04-06T00:58:02.579Z,94279.6
2019-04-06T00:59:05.002Z,94283.9
2019-04-06T01:00:07.459Z,94281.3
2019-04-06T01:01:09.898Z,94278.5
2019-04-06T01:02:12.340Z,94276.2
2019-04-06T01:03:14.757Z,94280.5
2019-04-06T01:04:17.179Z,94281.4
2019-04-06T01:05:19.448Z,94283.8
2019-04-06T01:06:21.875Z,94287
2019-04-06T01:07:24.929Z,94282.5
2019-04-06T01:08:27.360Z,94280.9
2019-04-06T01:09:29.522Z,94276.3
2019-04-06T01:10:31.955Z,94271.8
2019-04-06T01:11:34.408Z,94267.9
2019-04-06T01:12:36.893Z,94271.6
2019-04-06T01:13:39.069Z,94276.3
2019-04-06T01:14:41.203Z,94274.1
2019-04-06T01:15:43.369Z,94280.2
2019-04-06T01:16:45.808Z,94282.3
2019-04-06T01:17:47.999Z,94284.1
2019-04-06T01:18:50.162Z,94282.9
2019-04-06T01:19:52.334Z,94286.8
2019-04-06T01:20:54.771Z,94285
2019-04-06T01:21:56.920Z,94288.1
2019-04-06T01:22:59.380Z,94286.9
2019-04-06T01:24:01.909Z,94283.7
2019-04-06T01:25:04.367Z,94284.1
2019-04-06T01:27:11.509Z,94283.3
2019-04-06T01:28:14.030Z,94281.1
2019-04-06T01:29:16.527Z,94279.9
2019-04-06T01:30:18.973Z,94281
2019-04-06T01:31:21.487Z,94273.1
2019-04-06T01:32:23.939Z,94271.4
2019-04-06T01:33:26.163Z,94273.9
2019-04-06T01:34:28.661Z,94270.6
2019-04-06T01:35:30.824Z,94269
2019-04-06T01:36:32.991Z,94266.8
2019-04-06T01:37:35.717Z,94266.7
2019-04-06T01:38:38.135Z,94265.3
2019-04-06T01:39:40.583Z,94267.9
2019-04-06T01:40:43.060Z,94268.2
2019-04-06T01:41:45.198Z,94267.1
2019-04-06T01:42:47.622Z,94262.8
2019-04-06T01:43:50.075Z,94263
2019-04-06T01:44:52.497Z,94264.5
2019-04-06T01:45:55.001Z,94264.1
2019-04-06T01:46:57.473Z,94266.3
2019-04-06T01:47:59.966Z,94264
2019-04-06T01:49:02.179Z,94267.1
2019-04-06T01:50:04.113Z,94267.7
2019-04-06T01:51:06.315Z,94266.8
2019-04-06T01:52:08.479Z,94263.1
2019-04-06T01:53:10.899Z,94264.3
2019-04-06T01:54:13.338Z,94258.2
2019-04-06T01:55:15.509Z,94257.5
2019-04-06T01:57:23.105Z,94253.7
2019-04-06T01:58:25.528Z,94257
2019-04-06T01:59:27.703Z,94260.4
2019-04-06T02:00:30.196Z,94258.1
2019-04-06T02:01:32.754Z,94257.6
2019-04-06T02:02:35.327Z,94260.6
2019-04-06T02:03:37.879Z,94255.9
2019-04-06T02:04:40.029Z,94260.4
2019-04-06T02:05:42.455Z,94257.3
2019-04-06T02:06:44.729Z,94261.1
2019-04-06T02:07:47.156Z,94258.4
2019-04-06T02:08:49.577Z,94256.7
2019-04-06T02:09:52.010Z,94259.3
2019-04-06T02:10:54.539Z,94262.8
2019-04-06T02:11:56.981Z,94266.3
2019-04-06T02:12:59.411Z,94262.2
2019-04-06T02:14:01.559Z,94263.9
2019-04-06T02:15:04.069Z,94256.8
2019-04-06T02:16:06.648Z,94254.5
2019-04-06T02:17:09.129Z,94256
2019-04-06T02:18:11.303Z,94256.1
2019-04-06T02:19:13.747Z,94260.9
2019-04-06T02:20:15.900Z,94260.4
2019-04-06T02:21:18.059Z,94262.2
2019-04-06T02:22:20.692Z,94261.8
2019-04-06T02:23:22.693Z,94259.7
2019-04-06T02:24:25.231Z,94256.5
2019-04-06T02:25:27.659Z,94257.7
2019-04-06T02:26:32.201Z,94256.4
2019-04-06T02:27:34.842Z,94257.8
2019-04-06T02:28:37.290Z,94263.4
2019-04-06T02:29:39.726Z,94258.8
2019-04-06T02:30:42.091Z,94256.3
2019-04-06T02:31:44.546Z,94260.2
2019-04-06T02:32:47.154Z,94256.4
2019-04-06T02:33:49.611Z,94256.9
2019-04-06T02:34:51.753Z,94256.9
2019-04-06T02:35:54.176Z,94256.5
2019-04-06T02:36:56.508Z,94258.5
2019-04-06T02:37:58.412Z,94255.5
2019-04-06T02:39:00.283Z,94255.5
2019-04-06T02:40:02.925Z,94249.2
2019-04-06T02:41:05.165Z,94255.4
2019-04-06T02:42:07.617Z,94249.2
2019-04-06T02:43:10.090Z,94251.2
2019-04-06T02:44:12.792Z,94250.9
2019-04-06T02:45:15.277Z,94249.3
2019-04-06T02:46:17.992Z,94243
2019-04-06T02:47:20.739Z,94249.4
2019-04-06T02:48:23.165Z,94249.6
2019-04-06T02:49:25.600Z,94248.5
2019-04-06T02:50:28.191Z,94246.3
2019-04-06T02:51:30.617Z,94245.5
2019-04-06T02:52:33.058Z,94246.3
2019-04-06T02:53:35.247Z,94242.4
2019-04-06T02:54:37.684Z,94247.3
2019-04-06T02:55:40.136Z,94242.6
2019-04-06T02:57:47.760Z,94243.3
2019-04-06T02:58:50.263Z,94244.8
2019-04-06T02:59:52.785Z,94250.1
2019-04-06T03:00:55.315Z,94243.4
2019-04-06T03:01:57.673Z,94247.9
2019-04-06T03:03:00.491Z,94249.7
2019-04-06T03:04:02.916Z,94249
2019-04-06T03:05:04.509Z,94249.8
2019-04-06T03:06:07.102Z,94243.9
2019-04-06T03:07:09.574Z,94247.3
2019-04-06T03:08:11.733Z,94248.6
2019-04-06T03:09:14.215Z,94247.4
2019-04-06T03:10:16.649Z,94245.8
2019-04-06T03:11:19.245Z,94245.7
2019-04-06T03:12:21.151Z,94242.6
2019-04-06T03:13:23.028Z,94246.2
2019-04-06T03:14:25.599Z,94245.8
2019-04-06T03:15:28.235Z,94240.1
2019-04-06T03:16:31.120Z,94245.4
2019-04-06T03:17:33.571Z,94246.1
2019-04-06T03:18:35.729Z,94244.7
2019-04-06T03:19:38.160Z,94240.8
2019-04-06T03:20:40.580Z,94243
2019-04-06T03:21:43.020Z,94242
2019-04-06T03:22:45.680Z,94242.1
2019-04-06T03:24:52.639Z,94239.2
2019-04-06T03:25:54.908Z,94236.7
2019-04-06T03:28:02.391Z,94237.6
2019-04-06T03:29:05.042Z,94238.6
2019-04-06T03:30:08.175Z,94240.8
2019-04-06T03:31:11.608Z,94239.4
2019-04-06T03:32:13.930Z,94239.7
2019-04-06T03:33:17.021Z,94241.7
2019-04-06T03:35:24.554Z,94239.7
2019-04-06T03:36:27.031Z,94238.7
2019-04-06T03:37:29.516Z,94233.8
2019-04-06T03:38:31.970Z,94240.4
2019-04-06T03:39:34.143Z,94237.4
2019-04-06T03:40:36.576Z,94237
2019-04-06T03:41:38.949Z,94232.4
2019-04-06T03:42:41.471Z,94233.5
2019-04-06T03:43:43.909Z,94239.1
2019-04-06T03:44:46.663Z,94236.6
2019-04-06T03:45:49.210Z,94234
2019-04-06T03:46:51.251Z,94231.1
2019-04-06T03:47:53.116Z,94239.2
2019-04-06T03:48:55.335Z,94236.7
2019-04-06T03:49:58.027Z,94239.4
2019-04-06T03:51:00.722Z,94238.9
2019-04-06T03:52:03.284Z,94239.7
2019-04-06T03:53:05.447Z,94236.8
2019-04-06T03:54:08.137Z,94240.5
2019-04-06T03:55:10.078Z,94239.2
2019-04-06T03:56:11.739Z,94242.1
2019-04-06T03:58:18.958Z,94233.8
2019-04-06T03:59:21.468Z,94236.9
2019-04-06T04:00:24.192Z,94240.7
2019-04-06T04:01:26.900Z,94240.7
2019-04-06T04:02:29.536Z,94236.8
2019-04-06T04:03:31.960Z,94241.3
2019-04-06T04:04:34.393Z,94240
2019-04-06T04:05:36.754Z,94241.8
2019-04-06T04:06:38.711Z,94240.5
2019-04-06T04:07:40.745Z,94236.6
2019-04-06T04:08:43.557Z,94240.5
2019-04-06T04:09:46.425Z,94239.6
2019-04-06T04:10:49.598Z,94238.4
2019-04-06T04:11:52.058Z,94238.8
2019-04-06T04:12:54.416Z,94233.5
2019-04-06T04:13:56.872Z,94236.9
2019-04-06T04:14:59.406Z,94235.5
2019-04-06T04:16:02.073Z,94233.3
2019-04-06T04:17:04.481Z,94233.3
2019-04-06T04:18:07.397Z,94237.3
2019-04-06T04:19:09.598Z,94236.1
2019-04-06T04:20:12.058Z,94238
2019-04-06T04:21:14.839Z,94239.5
2019-04-06T04:22:17.526Z,94244
2019-04-06T04:23:20.023Z,94241.6
2019-04-06T04:24:22.854Z,94239.3
2019-04-06T04:25:25.453Z,94238.6
2019-04-06T04:26:28.203Z,94241.5
2019-04-06T04:27:32.357Z,94236.2
2019-04-06T04:28:35.046Z,94238.4
2019-04-06T04:29:37.464Z,94237.4
2019-04-06T04:30:40.507Z,94235
2019-04-06T04:31:42.945Z,94239.9
2019-04-06T04:32:45.618Z,94238.1
2019-04-06T04:33:48.080Z,94232.6
2019-04-06T04:34:50.516Z,94238.8
2019-04-06T04:35:52.993Z,94237.8
2019-04-06T04:36:55.520Z,94235.5
2019-04-06T04:37:58.237Z,94234.4
2019-04-06T04:39:00.594Z,94243.6
2019-04-06T04:40:02.882Z,94243.6
2019-04-06T04:41:05.808Z,94248.7
2019-04-06T04:42:08.234Z,94250.5
2019-04-06T04:43:10.135Z,94244.7
2019-04-06T04:44:12.216Z,94253.3
2019-04-06T04:45:15.166Z,94250.8
2019-04-06T04:46:17.617Z,94251
2019-04-06T04:47:20.041Z,94254.6
2019-04-06T04:48:22.286Z,94257.5
2019-04-06T04:49:24.453Z,94255.5
2019-04-06T04:50:26.928Z,94257.8
2019-04-06T04:51:29.063Z,94257
2019-04-06T04:52:31.506Z,94261.4
2019-04-06T04:53:33.988Z,94262.6
2019-04-06T04:54:36.344Z,94260.8
2019-04-06T04:55:38.915Z,94264.7
2019-04-06T04:56:40.821Z,94259.8
2019-04-06T04:58:48.246Z,94263.6
2019-04-06T04:59:50.858Z,94260.3
2019-04-06T05:00:53.412Z,94258.8
2019-04-06T05:01:56.209Z,94264.8
2019-04-06T05:02:58.097Z,94261
2019-04-06T05:04:00.178Z,94263.2
2019-04-06T05:05:02.742Z,94263.1
2019-04-06T05:06:05.233Z,94262.9
2019-04-06T05:07:07.934Z,94265
2019-04-06T05:08:10.322Z,94265.3
2019-04-06T05:09:12.920Z,94267
2019-04-06T05:10:15.366Z,94267.6
2019-04-06T05:11:17.269Z,94267.2
2019-04-06T05:12:19.691Z,94269.7
2019-04-06T05:13:21.895Z,94268.1
2019-04-06T05:14:23.789Z,94269.6
2019-04-06T05:15:25.386Z,94268.5
2019-04-06T05:16:27.926Z,94267
2019-04-06T05:17:30.365Z,94267.4
2019-04-06T05:18:32.878Z,94271.9
2019-04-06T05:19:34.787Z,94275.5
2019-04-06T05:20:36.957Z,94277.5
2019-04-06T05:21:39.413Z,94278.6
2019-04-06T05:22:41.817Z,94277.5
2019-04-06T05:23:44.970Z,94277.5
2019-04-06T05:24:47.537Z,94278
2019-04-06T05:25:50.038Z,94276.4
2019-04-06T05:26:52.747Z,94272.3
2019-04-06T05:27:55.177Z,94276.4
2019-04-06T05:28:57.746Z,94278
2019-04-06T05:29:59.875Z,94276.4
2019-04-06T05:31:16.721Z,94285
2019-04-06T05:32:19.430Z,94280.1
2019-04-06T05:33:22.022Z,94276.5
2019-04-06T05:34:24.573Z,94278.8
2019-04-06T05:35:28.175Z,94279.9
2019-04-06T05:36:32.997Z,94277
2019-04-06T05:37:36.847Z,94276.5
2019-04-06T05:38:41.750Z,94278.7
2019-04-06T05:39:45.116Z,94279.8
2019-04-06T05:40:47.322Z,94278.8
2019-04-06T05:42:54.454Z,94279.5
2019-04-06T05:43:56.887Z,94281.7
2019-04-06T05:44:58.783Z,94282.4
2019-04-06T05:46:00.936Z,94286.2
2019-04-06T05:47:03.521Z,94286
2019-04-06T05:48:06.026Z,94288.8
2019-04-06T05:49:08.178Z,94282.9
2019-04-06T05:50:10.785Z,94288.3
2019-04-06T05:51:12.947Z,94289.2
2019-04-06T05:52:15.394Z,94295.7
2019-04-06T05:53:17.895Z,94293
2019-04-06T05:54:20.112Z,94293.2
2019-04-06T05:56:28.907Z,94299.8
2019-04-06T05:58:36.078Z,94296.6
2019-04-06T05:59:42.799Z,94297.3
2019-04-06T06:00:44.965Z,94294
2019-04-06T06:02:52.509Z,94294.8
2019-04-06T06:03:54.947Z,94296.9
2019-04-06T06:04:57.587Z,94301.9
2019-04-06T06:06:04.513Z,94299.4
2019-04-06T06:07:07.987Z,94301.1
2019-04-06T06:08:10.481Z,94301.1
2019-04-06T06:09:13.322Z,94299.8
2019-04-06T06:10:15.962Z,94300.4
2019-04-06T06:11:18.248Z,94300
2019-04-06T06:12:20.666Z,94295.6
2019-04-06T06:13:22.842Z,94301.6
2019-04-06T06:14:25.487Z,94297.4
2019-04-06T06:15:27.775Z,94297.4
2019-04-06T06:16:30.368Z,94302.1
2019-04-06T06:17:33.153Z,94298
2019-04-06T06:18:35.571Z,94295.9
2019-04-06T06:19:38.729Z,94299.9
2019-04-06T06:20:41.324Z,94298.5
2019-04-06T06:21:43.762Z,94293.3
2019-04-06T06:22:46.196Z,94294.3
2019-04-06T06:23:49.080Z,94296.4
2019-04-06T06:24:51.870Z,94292.4
2019-04-06T06:25:54.293Z,94291.5
2019-04-06T06:26:56.117Z,94295.9
2019-04-06T06:27:58.630Z,94291.5
2019-04-06T06:29:00.882Z,94289.5
2019-04-06T06:30:03.161Z,94291.7
2019-04-06T06:31:05.809Z,94291.7
2019-04-06T06:32:08.359Z,94294.9
2019-04-06T06:33:10.717Z,94294.8
2019-04-06T06:34:13.326Z,94292.4
2019-04-06T06:35:15.928Z,94290.2
2019-04-06T06:36:18.536Z,94299.5
2019-04-06T06:37:20.872Z,94293.7
2019-04-06T06:38:22.785Z,94296.6
2019-04-06T06:39:24.952Z,94296
2019-04-06T06:40:27.186Z,94294
2019-04-06T06:41:29.358Z,94294
2019-04-06T06:42:32.006Z,94298.1
2019-04-06T06:43:34.147Z,94297.8
2019-04-06T06:44:36.325Z,94297.1
2019-04-06T06:45:39.124Z,94301.3
2019-04-06T06:46:41.296Z,94297.6
2019-04-06T06:47:43.736Z,94298.4
2019-04-06T06:48:46.167Z,94297.4
2019-04-06T06:49:48.092Z,94293.9
2019-04-06T06:50:50.530Z,94296.2
2019-04-06T06:51:52.845Z,94298.1
2019-04-06T06:52:55.657Z,94299.4
2019-04-06T06:53:58.168Z,94303.6
2019-04-06T06:55:00.327Z,94299.8
2019-04-06T06:56:02.712Z,94300.3
2019-04-06T06:57:05.492Z,94299.2
2019-04-06T06:58:07.399Z,94297.2
2019-04-06T06:59:09.744Z,94295.5
2019-04-06T07:00:12.294Z,94296.8
2019-04-06T07:01:14.994Z,94295.3
2019-04-06T07:02:17.408Z,94296.3
2019-04-06T07:03:19.554Z,94297.3
2019-04-06T07:04:21.988Z,94294.8
2019-04-06T07:05:24.597Z,94293.2
2019-04-06T07:06:27.223Z,94294.6
2019-04-06T07:07:29.377Z,94297.9
2019-04-06T07:08:31.993Z,94297
2019-04-06T07:09:34.868Z,94300.4
2019-04-06T07:10:37.698Z,94292.4
2019-04-06T07:11:40.307Z,94294.7
2019-04-06T07:12:43.087Z,94297.5
2019-04-06T07:13:45.981Z,94301.7
2019-04-06T07:14:52.872Z,94299.1
2019-04-06T07:16:04.875Z,94297.9
2019-04-06T07:17:13.716Z,94302.1
2019-04-06T07:18:24.362Z,94293.4
2019-04-06T07:19:34.696Z,94293.3
2019-04-06T07:20:43.739Z,94297.8
2019-04-06T07:21:55.489Z,94292.2
2019-04-06T07:23:06.551Z,94296.8
2019-04-06T07:24:14.112Z,94296
2019-04-06T07:25:17.465Z,94300.3
2019-04-06T07:26:20.778Z,94302
2019-04-06T07:27:23.154Z,94299.9
2019-04-06T07:29:30.706Z,94300
2019-04-06T07:30:33.206Z,94299.7
2019-04-06T07:31:35.669Z,94296
2019-04-06T07:32:37.718Z,94300.5
2019-04-06T07:33:39.949Z,94298.3
2019-04-06T07:34:41.821Z,94302.6
2019-04-06T07:35:44.220Z,94297.5
2019-04-06T07:36:46.383Z,94300.4
2019-04-06T07:37:48.817Z,94301.4
2019-04-06T07:38:50.995Z,94301.4
2019-04-06T07:39:53.948Z,94298.4
2019-04-06T07:40:56.192Z,94294.6
2019-04-06T07:41:58.336Z,94296.5
2019-04-06T07:43:00.777Z,94296.2
2019-04-06T07:45:09.212Z,94293.9
2019-04-06T07:46:11.919Z,94294.2
2019-04-06T07:47:14.358Z,94291.8
2019-04-06T07:48:16.544Z,94294.4
2019-04-06T07:49:18.976Z,94293
2019-04-06T07:50:21.112Z,94293.9
2019-04-06T07:51:23.616Z,94291.5
2019-04-06T07:52:25.953Z,94290.4
2019-04-06T07:53:28.229Z,94288.2
2019-04-06T07:54:30.720Z,94291.6
2019-04-06T07:55:33.246Z,94290
2019-04-06T07:56:35.704Z,94292.6
2019-04-06T07:57:37.854Z,94290.3
2019-04-06T07:59:45.108Z,94287.7
2019-04-06T08:00:47.482Z,94288.2
2019-04-06T08:01:50.716Z,94288.2
2019-04-06T08:02:52.860Z,94284.6
2019-04-06T08:03:55.005Z,94284.3
2019-04-06T08:04:57.276Z,94282.5
2019-04-06T08:06:00.120Z,94283.1
2019-04-06T08:07:02.472Z,94287.8
2019-04-06T08:08:04.904Z,94285.6
2019-04-06T08:09:07.682Z,94287
2019-04-06T08:10:10.142Z,94283.1
2019-04-06T08:11:12.680Z,94285.5
2019-04-06T08:12:15.104Z,94282.1
2019-04-06T08:13:17.864Z,94283.6
2019-04-06T08:14:20.310Z,94280.5
2019-04-06T08:15:22.938Z,94283.6
2019-04-06T08:16:25.377Z,94282
2019-04-06T08:17:27.815Z,94280.7
2019-04-06T08:18:31.377Z,94284.7
2019-04-06T08:19:34.087Z,94285
2019-04-06T08:20:36.670Z,94282.6
2019-04-06T08:21:38.899Z,94281.3
2019-04-06T08:22:41.370Z,94276.8
2019-04-06T08:23:43.932Z,94277.1
2019-04-06T08:24:46.369Z,94273.2
2019-04-06T08:25:48.776Z,94277.8
2019-04-06T08:26:51.347Z,94279
2019-04-06T08:27:53.563Z,94282.7
2019-04-06T08:30:01.134Z,94279.5
2019-04-06T08:31:03.299Z,94278.2
2019-04-06T08:32:05.891Z,94276.9
2019-04-06T08:33:08.806Z,94275
2019-04-06T08:34:13.354Z,94279
2019-04-06T08:36:22.756Z,94272.2
2019-04-06T08:37:25.192Z,94274.3
2019-04-06T08:38:27.770Z,94275.8
2019-04-06T08:39:30.538Z,94274.6
2019-04-06T08:40:33.241Z,94272
2019-04-06T08:41:35.755Z,94276
2019-04-06T08:42:38.335Z,94271.2
2019-04-06T08:43:40.867Z,94278.3
2019-04-06T08:44:43.454Z,94274
2019-04-06T08:45:46.031Z,94277.1
2019-04-06T08:46:48.559Z,94274.6
2019-04-06T08:47:51.318Z,94272.7
2019-04-06T08:48:53.184Z,94273.7
2019-04-06T08:49:55.614Z,94273.6
2019-04-06T08:50:58.328Z,94272.6
2019-04-06T08:52:01.503Z,94273.8
2019-04-06T08:53:03.916Z,94271.6
2019-04-06T08:54:06.352Z,94270.7
2019-04-06T08:55:08.848Z,94269.8
2019-04-06T08:56:11.078Z,94272.4
2019-04-06T08:57:13.526Z,94269
2019-04-06T08:58:15.978Z,94264.8
2019-04-06T08:59:18.735Z,94269.3
2019-04-06T09:00:21.178Z,94266.1
2019-04-06T09:01:23.691Z,94266.4
2019-04-06T09:03:32.331Z,94268.1
2019-04-06T09:04:34.629Z,94271.8
2019-04-06T09:05:37.360Z,94272.1
2019-04-06T09:06:39.313Z,94269.6
2019-04-06T09:07:42.382Z,94272
2019-04-06T09:08:44.936Z,94262.1
2019-04-06T09:09:47.617Z,94260.7
2019-04-06T09:10:50.021Z,94260.9
2019-04-06T09:11:52.410Z,94255.3
2019-04-06T09:12:54.453Z,94251.4
2019-04-06T09:13:56.670Z,94251.1
2019-04-06T09:14:59.098Z,94249.7
2019-04-06T09:17:07.380Z,94251
2019-04-06T09:18:09.722Z,94252
2019-04-06T09:19:12.388Z,94251.1
2019-04-06T09:20:15.199Z,94249.8
2019-04-06T09:21:17.686Z,94255.8
2019-04-06T09:22:20.112Z,94252
2019-04-06T09:23:22.046Z,94246.5
2019-04-06T09:24:24.561Z,94249.1
2019-04-06T09:25:26.993Z,94243.7
2019-04-06T09:26:29.934Z,94250.5
2019-04-06T09:27:32.368Z,94244.9
2019-04-06T09:28:35.210Z,94243.4
2019-04-06T09:29:37.551Z,94241.5
2019-04-06T09:30:39.838Z,94240.5
2019-04-06T09:31:42.189Z,94241.2
2019-04-06T09:32:44.539Z,94240.8
2019-04-06T09:33:46.819Z,94237
2019-04-06T09:34:48.746Z,94234.7
2019-04-06T09:35:51.389Z,94232
2019-04-06T09:36:53.835Z,94230.8
2019-04-06T09:37:56.445Z,94230.3
2019-04-06T09:38:58.606Z,94230
2019-04-06T09:40:00.880Z,94236.1
2019-04-06T09:41:03.667Z,94227.6
2019-04-06T09:42:06.308Z,94223.5
2019-04-06T09:43:08.658Z,94226.8
2019-04-06T09:44:10.842Z,94228.5
2019-04-06T09:45:13.124Z,94226.9
2019-04-06T09:46:15.694Z,94224.5
2019-04-06T09:47:18.486Z,94223.5
2019-04-06T09:48:21.550Z,94222.6
2019-04-06T09:49:23.626Z,94221
2019-04-06T09:50:26.235Z,94221.1
2019-04-06T09:51:28.430Z,94217.8
2019-04-06T09:52:30.594Z,94212.4
2019-04-06T09:53:35.283Z,94208.5
2019-04-06T09:54:37.882Z,94212.8
2019-04-06T09:55:40.299Z,94212.5
2019-04-06T09:56:42.562Z,94214.4
2019-04-06T09:57:45.061Z,94212.7
2019-04-06T09:58:47.994Z,94214.2
2019-04-06T09:59:50.752Z,94216
2019-04-06T10:00:53.066Z,94212.8
2019-04-06T10:01:55.503Z,94212.9
2019-04-06T10:02:57.796Z,94205.2
2019-04-06T10:04:00.594Z,94205.8
2019-04-06T10:05:03.099Z,94208.9
2019-04-06T10:06:05.626Z,94203
2019-04-06T10:07:08.504Z,94205.7
2019-04-06T10:08:11.257Z,94200.2
2019-04-06T10:09:13.246Z,94198.5
2019-04-06T10:10:15.133Z,94204.4
2019-04-06T10:11:18.044Z,94194.7
2019-04-06T10:12:20.658Z,94190.6
2019-04-06T10:13:22.828Z,94192.4
2019-04-06T10:14:24.760Z,94194.8
2019-04-06T10:15:27.047Z,94196
2019-04-06T10:16:29.788Z,94196.2
2019-04-06T10:17:31.930Z,94199.9
2019-04-06T10:18:34.714Z,94196.1
2019-04-06T10:19:37.145Z,94195.5
2019-04-06T10:20:39.955Z,94195.6
2019-04-06T10:21:42.459Z,94190.8
2019-04-06T10:22:45.060Z,94188.5
2019-04-06T10:23:47.883Z,94200.6
2019-04-06T10:24:50.264Z,94194.2
2019-04-06T10:25:52.947Z,94192.9
2019-04-06T10:26:55.388Z,94191.6
2019-04-06T10:27:57.828Z,94190.8
2019-04-06T10:29:00.077Z,94186.7
2019-04-06T10:30:02.556Z,94186.7
2019-04-06T10:31:05.318Z,94188.6
2019-04-06T10:32:07.940Z,94182.2
2019-04-06T10:33:10.373Z,94184
2019-04-06T10:34:12.958Z,94183.8
2019-04-06T10:35:15.862Z,94177.6
2019-04-06T10:36:18.532Z,94172.6
2019-04-06T10:37:21.399Z,94174.5
2019-04-06T10:38:24.071Z,94179.5
2019-04-06T10:39:26.681Z,94170.1
2019-04-06T10:40:29.549Z,94172.9
2019-04-06T10:41:32.196Z,94168.8
2019-04-06T10:42:34.625Z,94166.8
2019-04-06T10:43:37.305Z,94164.4
2019-04-06T10:44:40.063Z,94165.1
2019-04-06T10:45:42.363Z,94162.6
2019-04-06T10:46:45.192Z,94162.2
2019-04-06T10:47:47.634Z,94153.1
2019-04-06T10:48:49.973Z,94149.6
2019-04-06T10:49:52.503Z,94150.2
2019-04-06T10:50:54.853Z,94143.5
2019-04-06T10:51:57.336Z,94144.6
2019-04-06T10:52:59.652Z,94136.2
2019-04-06T10:54:02.155Z,94146.1
2019-04-06T10:55:05.326Z,94143.8
2019-04-06T10:56:08.082Z,94142.1
2019-04-06T10:57:09.984Z,94139.5
2019-04-06T10:58:12.661Z,94142.8
2019-04-06T10:59:15.014Z,94143.7
2019-04-06T11:00:17.514Z,94139
2019-04-06T11:01:19.912Z,94139.3
2019-04-06T11:02:22.236Z,94138.6
2019-04-06T11:03:24.112Z,94137.5
2019-04-06T11:04:26.735Z,94134.3
2019-04-06T11:05:29.724Z,94137.2
2019-04-06T11:06:32.216Z,94138.2
2019-04-06T11:07:35.038Z,94131.2
2019-04-06T11:08:37.236Z,94134.4
2019-04-06T11:09:39.287Z,94128
2019-04-06T11:10:42.080Z,94126.6
2019-04-06T11:11:45.172Z,94123.1
2019-04-06T11:12:47.344Z,94122.7
2019-04-06T11:13:49.830Z,94125.9
2019-04-06T11:14:52.473Z,94120.9
2019-04-06T11:15:54.894Z,94122.2
2019-04-06T11:16:57.735Z,94118.4
2019-04-06T11:18:00.163Z,94117
2019-04-06T11:19:03.109Z,94111.9
2019-04-06T11:20:05.725Z,94114.6
2019-04-06T11:21:07.922Z,94107.2
2019-04-06T11:22:10.086Z,94103
2019-04-06T11:23:12.522Z,94108.2
2019-04-06T11:24:14.666Z,94112.4
2019-04-06T11:25:16.882Z,94115.6
2019-04-06T11:26:19.790Z,94109.1
2019-04-06T11:27:22.778Z,94109.4
2019-04-06T11:28:25.357Z,94106.8
2019-04-06T11:29:27.960Z,94101.6
2019-04-06T11:30:30.771Z,94102.1
2019-04-06T11:31:33.168Z,94105.8
2019-04-06T11:32:35.446Z,94106.5
2019-04-06T11:33:37.597Z,94106.7
2019-04-06T11:34:40.378Z,94109.8
2019-04-06T11:35:42.813Z,94100.2
2019-04-06T11:36:45.746Z,94111.5
2019-04-06T11:37:48.077Z,94108
2019-04-06T11:38:50.482Z,94103.9
2019-04-06T11:39:53.169Z,94106.1
2019-04-06T11:40:55.878Z,94105.3
2019-04-06T11:41:58.039Z,94106.1
2019-04-06T11:43:00.830Z,94100.7
2019-04-06T11:44:03.301Z,94100.7
2019-04-06T11:45:05.454Z,94098.4
2019-04-06T11:46:08.332Z,94102.2
2019-04-06T11:47:10.998Z,94093.9
2019-04-06T11:48:13.567Z,94095.6
2019-04-06T11:49:15.822Z,94089.4
2019-04-06T11:50:18.251Z,94096.1
2019-04-06T11:51:20.844Z,94092.7
2019-04-06T11:52:23.482Z,94089.8
2019-04-06T11:53:26.128Z,94095.4
2019-04-06T11:54:28.808Z,94090.6
2019-04-06T11:55:30.946Z,94100.2
2019-04-06T11:56:33.388Z,94093.3
2019-04-06T11:57:35.823Z,94095.5
2019-04-06T11:58:38.106Z,94095.4
2019-04-06T11:59:40.809Z,94092.7
2019-04-06T12:00:43.179Z,94091.1
2019-04-06T12:01:45.259Z,94091.7
2019-04-06T12:02:48.183Z,94090.9
2019-04-06T12:03:50.580Z,94095.2
2019-04-06T12:04:52.348Z,94088.3
2019-04-06T12:05:54.523Z,94088.3
2019-04-06T12:06:57.005Z,94090.4
2019-04-06T12:07:59.180Z,94100.2
2019-04-06T12:09:01.607Z,94098.9
2019-04-06T12:10:04.090Z,94095.1
2019-04-06T12:11:07.236Z,94096.8
2019-04-06T12:12:10.112Z,94094.5
2019-04-06T12:13:12.725Z,94091.7
2019-04-06T12:14:14.730Z,94087.5
2019-04-06T12:15:17.211Z,94085
2019-04-06T12:16:19.384Z,94089.3
2019-04-06T12:17:21.750Z,94093
2019-04-06T12:18:24.034Z,94097.4
2019-04-06T12:19:26.731Z,94086
2019-04-06T12:20:29.629Z,94093.9
2019-04-06T12:21:32.455Z,94087.5
2019-04-06T12:22:34.913Z,94080.5
2019-04-06T12:23:37.829Z,94085.5
2019-04-06T12:24:40.681Z,94086.2
2019-04-06T12:25:43.107Z,94086.7
2019-04-06T12:26:45.240Z,94087.9
2019-04-06T12:27:47.677Z,94088
2019-04-06T12:28:50.279Z,94089.3
2019-04-06T12:30:07.406Z,94088.3
2019-04-06T12:31:09.558Z,94081.2
2019-04-06T12:32:12.172Z,94094.1
2019-04-06T12:33:14.317Z,94088.3
2019-04-06T12:34:16.995Z,94090.8
2019-04-06T12:35:19.171Z,94086.4
2019-04-06T12:36:21.605Z,94104.4
2019-04-06T12:37:24.078Z,94091.5
2019-04-06T12:38:26.973Z,94091.6
2019-04-06T12:39:29.840Z,94084.3
2019-04-06T12:40:32.732Z,94096.2
2019-04-06T12:41:35.291Z,94088.4
2019-04-06T12:42:38.622Z,94091.3
2019-04-06T12:43:41.327Z,94089.2
2019-04-06T12:44:44.220Z,94094.2
2019-04-06T12:45:47.186Z,94086.2
2019-04-06T12:46:50.168Z,94083.8
2019-04-06T12:47:53.163Z,94079.3
2019-04-06T12:48:55.663Z,94087.8
2019-04-06T12:49:58.276Z,94085.7
2019-04-06T12:51:01.034Z,94082.8
2019-04-06T12:52:03.885Z,94081
2019-04-06T12:53:07.062Z,94082.2
2019-04-06T12:54:09.767Z,94081.7
2019-04-06T12:55:12.213Z,94081.8
2019-04-06T12:56:14.406Z,94083.5
2019-04-06T12:57:17.216Z,94074.4
2019-04-06T12:58:19.418Z,94082
2019-04-06T12:59:22.048Z,94088.6
2019-04-06T13:00:24.438Z,94080.8
2019-04-06T13:01:27.615Z,94077.9
2019-04-06T13:02:30.045Z,94080.4
2019-04-06T13:03:32.487Z,94077.5
2019-04-06T13:04:35.297Z,94076